Time;durP1;ratioP1;P1;durP2;ratioP2;P2;SDS_P1;SDS_P2;PMS_P1;PMS_P2;Temp;Humidity;BMP_temperature;BMP_pressure;BME280_temperature;BME280_humidity;BME280_pressure;Samples;Min_cycle;Max_cycle;Signal;HPM_P1;HPM_P2
2022/07/13 00:00:03;;;;;;;2.30;1.40;;;22.30;96.90;;;22.86;75.26;101592.88;5190486;28;20144;-76
2022/07/13 00:02:36;;;;;;;1.55;1.40;;;22.20;97.20;;;22.84;75.69;101591.97;5208476;28;20056;-76
2022/07/13 00:05:09;;;;;;;2.30;1.45;;;22.20;97.40;;;22.82;75.63;101587.53;5208603;28;20121;-75
2022/07/13 00:07:41;;;;;;;2.95;1.52;;;22.20;97.60;;;22.78;74.65;101586.69;5208708;28;20490;-75
2022/07/13 00:10:14;;;;;;;2.28;1.65;;;22.20;97.20;;;22.78;74.03;101585.78;5208366;28;20417;-74
2022/07/13 00:12:47;;;;;;;2.83;1.77;;;22.20;97.10;;;22.81;73.77;101597.28;5207913;28;20049;-74
2022/07/13 00:15:19;;;;;;;1.63;1.52;;;22.20;97.00;;;22.82;74.00;101591.09;5207879;28;20045;-74
2022/07/13 00:17:51;;;;;;;1.80;1.40;;;22.20;97.10;;;22.83;74.40;101582.25;5207843;28;20052;-74
2022/07/13 00:20:24;;;;;;;2.60;1.60;;;22.20;97.30;;;22.83;74.43;101586.66;5190081;28;20049;-74
2022/07/13 00:22:56;;;;;;;1.98;1.45;;;22.20;97.30;;;22.80;74.59;101584.88;5207736;28;20408;-74
2022/07/13 00:25:28;;;;;;;2.40;1.42;;;22.20;97.50;;;22.78;74.37;101576.03;5208016;28;20052;-74
2022/07/13 00:28:02;;;;;;;1.67;1.38;;;22.20;97.40;;;22.77;74.33;101576.94;5190000;28;20405;-75
2022/07/13 00:30:34;;;;;;;1.85;1.60;;;22.20;97.40;;;22.77;74.37;101570.75;5189886;28;20045;-74
2022/07/13 00:33:07;;;;;;;1.70;1.52;;;22.10;97.50;;;22.75;74.71;101560.09;5189537;28;20145;-74
2022/07/13 00:35:39;;;;;;;1.48;1.23;;;22.20;97.60;;;22.73;74.75;101564.53;5190358;28;20179;-74
2022/07/13 00:38:11;;;;;;;2.00;1.40;;;22.10;97.70;;;22.71;75.26;101561.88;5189658;28;20077;-74
2022/07/13 00:40:43;;;;;;;3.33;1.50;;;22.10;97.90;;;22.71;75.63;101566.31;5188970;28;20055;-77
2022/07/13 00:43:17;;;;;;;1.33;1.20;;;22.10;98.10;;;22.68;75.74;101561.00;5189343;28;20137;-76
2022/07/13 00:45:52;;;;;;;1.80;1.35;;;22.10;98.20;;;22.67;76.04;101569.88;5189490;28;20148;-74
2022/07/13 00:48:24;;;;;;;2.10;1.30;;;22.10;98.30;;;22.65;76.32;101555.72;5207042;28;20494;-77
2022/07/13 00:50:57;;;;;;;2.40;1.55;;;22.00;98.40;;;22.62;76.04;101545.06;5206891;28;20132;-75
2022/07/13 00:53:30;;;;;;;1.92;1.40;;;22.00;98.40;;;22.60;75.66;101546.88;5189064;28;20136;-76
2022/07/13 00:56:04;;;;;;;1.67;1.27;;;22.00;98.30;;;22.59;75.31;101543.31;5189183;28;20506;-76
2022/07/13 00:58:38;;;;;;;1.80;1.50;;;22.00;98.20;;;22.60;74.78;101530.91;5206748;28;20065;-76
2022/07/13 01:01:10;;;;;;;2.15;1.70;;;22.00;98.00;;;22.60;74.29;101536.22;5206635;28;20379;-76
2022/07/13 01:03:43;;;;;;;1.70;1.33;;;22.00;97.80;;;22.55;73.12;101530.91;5189125;28;20046;-75
2022/07/13 01:06:15;;;;;;;1.90;1.60;;;22.00;97.40;;;22.53;72.52;101535.38;5206692;28;20041;-77
2022/07/13 01:08:48;;;;;;;1.77;1.45;;;21.90;97.10;;;22.52;72.30;101530.94;5188712;28;20119;-76
2022/07/13 01:11:21;;;;;;;1.83;1.48;;;21.90;97.00;;;22.49;72.00;101536.25;5206493;28;20065;-76
2022/07/13 01:13:55;;;;;;;1.45;1.30;;;21.90;96.80;;;22.51;72.30;101538.94;5188623;28;20552;-76
2022/07/13 01:16:27;;;;;;;;;;;21.90;96.90;;;22.50;72.86;101540.69;5189404;28;20052;-77
2022/07/13 01:19:00;;;;;;;1.88;1.40;;;21.90;97.10;;;22.47;73.42;101533.59;5188442;28;19921;-76
2022/07/13 01:21:36;;;;;;;1.65;1.55;;;21.90;97.40;;;22.46;74.59;101534.50;5206237;28;20117;-76
2022/07/13 01:24:10;;;;;;;2.03;1.38;;;21.90;97.80;;;22.43;75.98;101531.88;5188253;28;20124;-76
2022/07/13 01:26:42;;;;;;;;;;;21.90;98.30;;;22.41;77.47;101530.97;5188722;28;20048;-77
2022/07/13 01:29:14;;;;;;;1.92;1.40;;;21.90;98.90;;;22.39;78.51;101532.75;5188251;28;19927;-76
2022/07/13 01:31:48;;;;;;;2.28;1.45;;;21.80;99.60;;;22.37;79.50;101512.41;5206195;28;20406;-77
2022/07/13 01:34:20;;;;;;;1.92;1.60;;;21.80;99.80;;;22.34;80.98;101507.97;5205892;28;20116;-76
2022/07/13 01:36:52;;;;;;;1.70;1.50;;;21.80;99.90;;;22.33;80.36;101507.97;5188278;28;20528;-76
2022/07/13 01:39:26;;;;;;;1.90;1.67;;;21.70;99.90;;;22.30;79.13;101511.53;5188343;28;20052;-77
2022/07/13 01:41:58;;;;;;;2.42;1.50;;;21.70;99.90;;;22.30;78.73;101510.63;5205746;28;20041;-75
2022/07/13 01:44:30;;;;;;;1.40;1.30;;;21.70;99.90;;;22.30;79.41;101511.53;5188337;28;20140;-75
2022/07/13 01:47:08;;;;;;;2.17;1.50;;;21.70;99.90;;;22.28;79.63;101512.41;5206262;28;20401;-75
2022/07/13 01:49:42;;;;;;;1.30;1.15;;;21.70;99.90;;;22.26;79.70;101509.75;5188028;28;20045;-75
2022/07/13 01:52:18;;;;;;;2.08;1.67;;;21.70;99.90;;;22.23;79.10;101515.06;5187797;28;20088;-75
2022/07/13 01:54:52;;;;;;;2.05;1.75;;;21.70;99.90;;;22.19;78.42;101505.34;5187793;28;20498;-75
2022/07/13 01:57:24;;;;;;;3.67;1.90;;;21.60;99.90;;;22.15;77.88;101506.22;5187986;28;20045;-74
2022/07/13 01:59:59;;;;;;;1.67;1.50;;;21.60;99.70;;;22.17;77.92;101505.34;5188017;28;20053;-76
2022/07/13 02:02:31;;;;;;;2.38;1.65;;;21.60;99.70;;;22.15;77.99;101492.94;5187700;28;20073;-77
2022/07/13 02:05:04;;;;;;;2.53;1.90;;;21.60;99.70;;;22.14;77.88;101499.16;5188103;28;20395;-76
2022/07/13 02:07:36;;;;;;;2.17;1.80;;;21.60;99.70;;;22.16;78.15;101497.38;5187879;28;20414;-75
2022/07/13 02:10:11;;;;;;;2.67;2.13;;;21.60;99.80;;;22.17;77.41;101488.53;5187692;28;20528;-75
2022/07/13 02:12:44;;;;;;;2.25;1.63;;;21.60;99.60;;;22.17;76.83;101488.53;5187893;28;20046;-75
2022/07/13 02:15:16;;;;;;;2.40;1.73;;;21.60;99.40;;;22.15;76.50;101480.56;5188211;28;20048;-75
2022/07/13 02:17:49;;;;;;;3.20;2.20;;;21.60;99.20;;;22.12;76.13;101475.28;5187599;28;20107;-75
2022/07/13 02:20:21;;;;;;;2.55;1.80;;;21.60;99.10;;;22.13;76.07;101482.34;5205624;28;20048;-75
2022/07/13 02:22:53;;;;;;;2.45;1.48;;;21.60;99.00;;;22.13;75.97;101473.50;5205506;28;20128;-75
2022/07/13 02:25:27;;;;;;;2.40;1.88;;;21.60;99.00;;;22.12;75.89;101463.78;5205605;28;20127;-76
2022/07/13 02:27:59;;;;;;;2.40;1.60;;;21.60;98.90;;;22.14;75.74;101467.28;5187991;28;20056;-75
2022/07/13 02:30:32;;;;;;;2.03;1.50;;;21.60;98.90;;;22.15;76.03;101466.41;5188037;28;20053;-75
2022/07/13 02:33:04;;;;;;;1.88;1.40;;;21.60;99.00;;;22.13;76.21;101455.78;5187871;28;20049;-76
2022/07/13 02:35:36;;;;;;;2.08;1.55;;;21.60;99.00;;;22.13;75.56;101460.22;5187728;28;20049;-75
2022/07/13 02:38:08;;;;;;;2.25;1.60;;;21.60;98.80;;;22.13;74.96;101476.16;5187539;28;20056;-75
2022/07/13 02:40:42;;;;;;;1.92;1.73;;;21.50;98.50;;;22.14;74.45;101477.91;5187556;28;20140;-77
2022/07/13 02:43:14;;;;;;;1.50;1.30;;;21.60;98.40;;;22.14;74.39;101469.94;5187563;28;20038;-75
2022/07/13 02:45:48;;;;;;;1.75;1.42;;;21.60;98.40;;;22.14;73.94;101467.28;5187783;28;20048;-75
2022/07/13 02:48:21;;;;;;;1.83;1.30;;;21.60;98.50;;;22.15;74.64;101461.09;5187422;28;20513;-77
2022/07/13 02:50:53;;;;;;;2.25;1.70;;;21.60;98.40;;;22.13;74.63;101455.78;5205206;28;20437;-77
2022/07/13 02:53:26;;;;;;;1.55;1.45;;;21.60;98.40;;;22.12;74.76;101450.50;5187851;28;20042;-75
2022/07/13 02:55:59;;;;;;;2.03;1.52;;;21.60;98.40;;;22.11;74.82;101462.88;5187572;28;20115;-74
2022/07/13 02:58:32;;;;;;;;;;;21.60;98.50;;;22.10;75.51;101460.22;5187812;28;20099;-75
2022/07/13 03:01:05;;;;;;;1.77;1.50;;;21.60;98.70;;;22.09;75.98;101459.31;5187618;28;19979;-74
2022/07/13 03:03:37;;;;;;;1.83;1.33;;;21.50;98.90;;;22.09;76.53;101458.44;5205094;28;20569;-75
2022/07/13 03:06:10;;;;;;;1.52;1.40;;;21.50;99.00;;;22.08;76.06;101456.66;5191098;28;20060;-77
2022/07/13 03:08:43;;;;;;;2.40;1.40;;;21.50;99.00;;;22.07;76.07;101454.88;5190980;28;20053;-76
2022/07/13 03:11:16;;;;;;;2.60;2.00;;;21.50;99.00;;;22.03;76.02;101454.00;5191169;28;20049;-73
2022/07/13 03:13:48;;;;;;;2.55;1.73;;;21.50;99.20;;;22.02;75.77;101459.31;5191067;28;20092;-75
2022/07/13 03:16:20;;;;;;;1.70;1.60;;;21.50;98.90;;;22.02;76.17;101457.53;5190878;28;20037;-77
2022/07/13 03:18:52;;;;;;;2.00;1.50;;;21.50;99.00;;;22.02;76.94;101454.88;5190955;28;20052;-75
2022/07/13 03:21:25;;;;;;;1.88;1.50;;;21.50;99.20;;;22.00;77.08;101459.31;5190694;28;20053;-75
2022/07/13 03:23:58;;;;;;;2.17;1.65;;;21.40;99.30;;;21.98;76.55;101454.91;5190757;28;20053;-74
2022/07/13 03:26:31;;;;;;;2.80;1.60;;;21.40;99.10;;;21.94;76.19;101460.22;5191177;28;20184;-75
2022/07/13 03:29:04;;;;;;;2.47;1.80;;;21.40;99.00;;;21.92;76.04;101455.81;5190855;28;20065;-76
2022/07/13 03:31:36;;;;;;;2.17;1.63;;;21.40;98.90;;;21.94;76.06;101457.56;5191006;28;20051;-75
2022/07/13 03:34:09;;;;;;;1.77;1.45;;;21.40;99.20;;;21.94;76.14;101452.25;5191060;28;20145;-75
2022/07/13 03:36:43;;;;;;;1.88;1.63;;;21.40;99.00;;;21.94;76.40;101448.72;5190840;28;20092;-75
2022/07/13 03:39:16;;;;;;;2.10;1.80;;;21.40;99.00;;;21.91;76.53;101449.63;5190638;28;20073;-74
2022/07/13 03:41:50;;;;;;;2.63;1.90;;;21.40;99.10;;;21.89;76.67;101445.19;5190853;28;20103;-74
2022/07/13 03:44:22;;;;;;;2.38;1.83;;;21.40;99.10;;;21.88;76.69;101454.91;5190601;28;20529;-74
2022/07/13 03:46:54;;;;;;;2.60;2.00;;;21.40;99.20;;;21.87;76.82;101442.53;5190233;28;20102;-74
2022/07/13 03:49:27;;;;;;;2.10;1.90;;;21.30;99.20;;;21.85;76.91;101439.00;5190229;28;20529;-76
2022/07/13 03:51:59;;;;;;;2.70;1.70;;;21.30;99.20;;;21.86;77.00;101438.13;5190031;28;20049;-75
2022/07/13 03:54:31;;;;;;;2.20;1.80;;;21.30;99.30;;;21.85;77.07;101439.00;5208036;28;20034;-75
2022/07/13 03:57:05;;;;;;;2.92;1.98;;;21.30;99.30;;;21.84;77.13;101441.63;5207941;28;20068;-75
2022/07/13 03:59:37;;;;;;;2.53;1.90;;;21.30;99.40;;;21.83;77.23;101440.75;5190175;28;20403;-75
2022/07/13 04:02:10;;;;;;;3.15;2.25;;;21.30;99.30;;;21.83;77.18;101439.88;5190407;28;20585;-75
2022/07/13 04:04:42;;;;;;;1.98;1.73;;;21.30;99.30;;;21.81;77.17;101439.88;5190378;28;20040;-75
2022/07/13 04:07:14;;;;;;;3.42;2.38;;;21.30;99.40;;;21.81;77.09;101436.34;5190099;28;20144;-75
2022/07/13 04:09:47;;;;;;;2.72;2.00;;;21.30;99.30;;;21.81;77.00;101437.22;5189973;28;20149;-77
2022/07/13 04:12:22;;;;;;;4.05;2.10;;;21.30;99.30;;;21.81;76.81;101437.22;5189843;28;20050;-75
2022/07/13 04:14:54;;;;;;;3.33;2.05;;;21.30;99.20;;;21.83;76.87;101432.78;5189714;28;20128;-77
2022/07/13 04:17:27;;;;;;;2.15;1.60;;;21.30;99.20;;;21.84;76.69;101425.72;5188789;28;20418;-77
2022/07/13 04:20:00;;;;;;;2.45;1.60;;;21.30;99.20;;;21.85;76.43;101420.44;5189876;28;20458;-76
2022/07/13 04:22:33;;;;;;;2.00;1.80;;;21.40;99.10;;;21.85;76.14;101416.91;5189605;28;20054;-77
2022/07/13 04:25:07;;;;;;;2.22;1.65;;;21.30;99.00;;;21.86;75.69;101416.00;5207361;28;20402;-77
2022/07/13 04:27:41;;;;;;;3.03;1.70;;;21.30;98.90;;;21.87;75.29;101421.31;5189360;28;20425;-77
2022/07/13 04:30:13;;;;;;;2.38;1.85;;;21.30;98.70;;;21.87;74.75;101420.41;5207173;28;20063;-77
2022/07/13 04:32:46;;;;;;;2.33;1.80;;;21.30;98.50;;;21.89;74.19;101424.81;5189380;28;20119;-76
2022/07/13 04:35:21;;;;;;;2.85;1.80;;;21.40;98.30;;;21.91;73.74;101422.19;5189400;28;20048;-75
2022/07/13 04:37:54;;;;;;;2.47;1.83;;;21.40;98.10;;;21.93;73.17;101433.69;5189376;28;20132;-78
2022/07/13 04:40:27;;;;;;;2.13;1.73;;;21.40;97.90;;;21.97;72.95;101429.22;5189562;28;20422;-75
2022/07/13 04:43:01;;;;;;;3.70;2.00;;;21.40;97.70;;;21.98;72.69;101439.88;5189310;28;20505;-75
2022/07/13 04:45:33;;;;;;;2.45;1.63;;;21.50;97.60;;;22.00;72.62;101442.53;5189522;28;20053;-74
2022/07/13 04:48:06;;;;;;;1.83;1.38;;;21.50;97.50;;;22.02;72.65;101444.28;5189325;28;20493;-75
2022/07/13 04:50:39;;;;;;;2.45;1.60;;;21.50;97.50;;;22.04;73.07;101441.59;5189337;28;20049;-76
2022/07/13 04:53:12;;;;;;;2.58;1.83;;;21.50;97.70;;;22.06;73.21;101439.84;5189188;28;20037;-76
2022/07/13 04:55:46;;;;;;;2.35;1.50;;;21.50;97.70;;;22.07;73.22;101433.66;5189356;28;20491;-75
2022/07/13 04:58:19;;;;;;;1.75;1.42;;;21.60;97.70;;;22.09;73.44;101429.25;5189108;28;20472;-74
2022/07/13 05:00:52;;;;;;;2.28;1.60;;;21.60;97.80;;;22.11;73.32;101439.00;5206744;28;20389;-75
2022/07/13 05:03:24;;;;;;;1.40;1.30;;;21.60;97.80;;;22.12;72.97;101430.13;5189212;28;20099;-76
2022/07/13 05:05:56;;;;;;;2.08;1.38;;;21.60;97.70;;;22.16;73.21;101433.66;5206586;28;20045;-76
2022/07/13 05:08:29;;;;;;;2.20;1.33;;;21.60;97.70;;;22.18;73.09;101424.81;5188837;28;20528;-75
2022/07/13 05:11:01;;;;;;;2.22;1.48;;;21.60;97.70;;;22.21;72.91;101426.56;5189037;28;20136;-75
2022/07/13 05:13:35;;;;;;;2.13;1.50;;;21.70;97.60;;;22.22;72.47;101423.00;5188821;28;20428;-75
2022/07/13 05:16:08;;;;;;;1.90;1.60;;;21.70;97.40;;;22.21;72.09;101422.13;5189270;28;20045;-76
2022/07/13 05:18:40;;;;;;;1.60;1.50;;;21.70;97.20;;;22.25;71.74;101428.31;5188837;28;20049;-75
2022/07/13 05:21:18;;;;;;;2.17;1.40;;;21.70;97.10;;;22.29;71.37;101432.72;5188906;28;20051;-74
2022/07/13 05:23:50;;;;;;;2.90;1.40;;;21.80;96.90;;;22.32;71.12;101437.16;5188861;28;20057;-75
2022/07/13 05:26:22;;;;;;;1.92;1.45;;;21.80;96.80;;;22.35;70.86;101435.34;5289608;22;20139;-73
2022/07/13 05:28:56;;;;;;;1.80;1.30;;;21.80;96.70;;;22.38;71.00;101438.03;5192693;28;20059;-72
2022/07/13 05:31:29;;;;;;;2.75;1.58;;;21.80;96.70;;;22.38;70.70;101429.16;5189592;28;20053;-73
2022/07/13 05:34:02;;;;;;;3.50;1.60;;;21.80;96.60;;;22.38;70.14;101435.38;5168000;28;20442;-72
2022/07/13 05:36:37;;;;;;;1.92;1.40;;;21.90;96.30;;;22.40;70.14;101435.34;5167918;28;20049;-71
2022/07/13 05:39:10;;;;;;;2.90;1.60;;;21.90;96.30;;;22.42;70.18;101442.41;5167637;28;20081;-74
2022/07/13 05:41:42;;;;;;;3.40;1.52;;;21.90;96.20;;;22.44;69.90;101439.78;5167769;28;20566;-73
2022/07/13 05:44:15;;;;;;;1.35;1.20;;;21.90;96.10;;;22.48;69.79;101447.69;5175793;28;20037;-73
2022/07/13 05:46:48;;;;;;;1.63;1.15;;;21.90;96.00;;;22.51;69.50;101445.94;5167791;28;20046;-71
2022/07/13 05:49:20;;;;;;;1.63;1.25;;;21.90;95.90;;;22.54;69.34;101443.25;5167712;28;20054;-73
2022/07/13 05:51:53;;;;;;;1.48;1.17;;;22.00;95.80;;;22.57;69.15;101453.88;5167728;28;20104;-72
2022/07/13 05:54:25;;;;;;;2.22;1.50;;;22.00;95.80;;;22.59;69.10;101460.94;5183961;28;20046;-74
2022/07/13 05:56:57;;;;;;;1.58;1.30;;;22.00;95.70;;;22.60;68.94;101449.44;5168108;28;20049;-73
2022/07/13 05:59:33;;;;;;;2.33;1.35;;;22.00;95.60;;;22.64;69.35;101458.28;5167726;28;20041;-73
2022/07/13 06:02:05;;;;;;;2.20;1.10;;;22.10;95.70;;;22.67;69.09;101452.94;5185344;28;20046;-71
2022/07/13 06:04:38;;;;;;;1.30;1.10;;;22.10;95.60;;;22.70;69.38;101437.00;5185380;28;20034;-72
2022/07/13 06:07:10;;;;;;;2.83;1.35;;;22.10;95.70;;;22.74;69.37;101433.41;5185240;28;20160;-73
2022/07/13 06:09:42;;;;;;;2.95;1.52;;;22.20;95.70;;;22.73;69.14;101427.22;5185097;28;20045;-74
2022/07/13 06:12:14;;;;;;;1.80;1.40;;;22.20;95.50;;;22.75;69.32;101437.84;5185399;28;20068;-73
2022/07/13 06:14:47;;;;;;;3.63;1.58;;;22.20;95.60;;;22.78;69.55;101429.88;5185033;28;20042;-73
2022/07/13 06:17:19;;;;;;;2.20;1.73;;;22.20;95.70;;;22.82;69.71;101436.03;5184958;28;20042;-77
2022/07/13 06:19:51;;;;;;;1.83;1.50;;;22.30;95.80;;;22.85;69.56;101434.25;5185122;28;20045;-74
2022/07/13 06:22:24;;;;;;;1.95;1.33;;;22.30;95.70;;;22.87;69.30;101432.50;5167588;28;20414;-75
2022/07/13 06:24:56;;;;;;;1.77;1.50;;;22.30;95.60;;;22.90;68.58;101421.84;5167780;28;20521;-76
2022/07/13 06:27:28;;;;;;;2.13;1.50;;;22.30;95.30;;;22.92;68.18;101433.34;5177354;28;20049;-74
2022/07/13 06:30:02;;;;;;;2.25;1.42;;;22.30;95.00;;;22.95;68.29;101424.47;5185048;28;20042;-75
2022/07/13 06:32:34;;;;;;;2.78;1.65;;;22.40;95.10;;;22.97;68.01;101420.91;5185320;28;20503;-73
2022/07/13 06:35:07;;;;;;;3.45;1.75;;;22.40;95.00;;;22.99;67.70;101413.81;5179753;28;20504;-75
2022/07/13 06:37:39;;;;;;;3.47;1.85;;;22.40;94.80;;;22.99;67.46;101416.47;5178905;28;20459;-56
2022/07/13 06:40:13;;;;;;;2.78;1.50;;;22.40;94.60;;;23.03;67.08;101425.31;5173878;28;20518;-55
2022/07/13 06:42:45;;;;;;;2.80;1.63;;;22.50;94.50;;;23.08;67.39;101406.66;5181715;28;20117;-55
2022/07/13 06:45:19;;;;;;;2.45;1.52;;;22.50;94.50;;;23.11;67.58;101406.66;5178921;28;20041;-55
2022/07/13 06:47:51;;;;;;;3.22;1.48;;;22.50;94.70;;;23.19;68.13;101408.34;5179641;28;20038;-55
2022/07/13 06:50:24;;;;;;;4.53;1.65;;;22.60;95.10;;;23.37;68.35;101410.00;5177792;28;20069;-72
2022/07/13 06:52:56;;;;;;;2.80;1.30;;;22.70;95.00;;;23.56;67.74;101403.63;5188476;28;20046;-70
2022/07/13 06:55:28;;;;;;;3.67;1.65;;;22.90;94.90;;;23.70;67.33;101402.63;5185667;28;20037;-74
2022/07/13 06:58:00;;;;;;;2.00;1.48;;;23.00;94.60;;;23.77;66.58;101401.69;5156677;28;20054;-70
2022/07/13 07:00:34;;;;;;;2.53;1.65;;;23.10;94.50;;;23.85;66.06;101418.44;5175210;28;20047;-73
2022/07/13 07:03:06;;;;;;;2.47;1.33;;;23.20;94.00;;;23.94;66.02;101422.81;5184061;28;20050;-71
2022/07/13 07:05:38;;;;;;;2.58;1.50;;;23.20;94.00;;;24.04;65.67;101429.78;5173395;28;20094;-71
2022/07/13 07:08:10;;;;;;;2.45;1.50;;;23.40;93.90;;;24.25;65.36;101423.34;5176016;28;20049;-72
2022/07/13 07:10:43;;;;;;;3.10;1.52;;;23.50;93.80;;;24.42;64.65;101426.72;5173013;28;20053;-71
2022/07/13 07:13:15;;;;;;;2.78;1.60;;;23.60;93.40;;;24.56;63.90;101423.88;5176295;28;20097;-71
2022/07/13 07:15:48;;;;;;;2.95;1.50;;;23.80;93.10;;;24.84;63.63;101427.03;5185506;28;20034;-73
2022/07/13 07:18:21;;;;;;;2.05;1.50;;;24.00;92.90;;;25.20;62.07;101431.00;5180229;28;20065;-72
2022/07/13 07:20:54;;;;;;;2.45;1.42;;;24.30;92.30;;;25.47;61.02;101440.34;5185635;28;20050;-74
2022/07/13 07:23:26;;;;;;;1.95;1.30;;;24.50;91.80;;;25.55;60.05;101435.75;5187349;28;20053;-72
2022/07/13 07:25:58;;;;;;;1.98;1.40;;;24.60;91.10;;;25.65;59.13;101425.81;5176953;28;20046;-72
2022/07/13 07:28:31;;;;;;;1.58;1.40;;;24.80;90.50;;;25.76;58.60;101423.00;5187268;28;20059;-71
2022/07/13 07:31:05;;;;;;;3.55;1.48;;;24.90;90.20;;;25.82;58.25;101413.06;5176913;28;20100;-72
2022/07/13 07:33:37;;;;;;;2.90;1.30;;;24.90;89.40;;;25.90;58.36;101426.28;5173650;28;20121;-72
2022/07/13 07:36:09;;;;;;;1.85;1.40;;;25.10;89.40;;;25.90;57.31;101412.94;5187158;28;20141;-72
2022/07/13 07:38:42;;;;;;;2.85;1.25;;;25.10;88.10;;;25.91;57.45;101418.22;5170146;28;20104;-73
2022/07/13 07:41:14;;;;;;;2.15;1.38;;;25.10;87.50;;;25.94;57.18;101411.94;5187708;28;20056;-72
2022/07/13 07:43:46;;;;;;;1.67;1.15;;;25.10;87.10;;;25.93;56.76;101418.19;5187556;28;20077;-72
2022/07/13 07:46:20;;;;;;;2.92;1.67;;;25.10;86.40;;;25.96;57.01;101416.38;5187728;28;20065;-74
2022/07/13 07:48:52;;;;;;;2.45;1.55;;;25.20;86.40;;;26.12;57.47;101427.63;5187492;28;20049;-73
2022/07/13 07:51:24;;;;;;;1.95;1.27;;;25.20;86.90;;;26.29;56.72;101421.06;5186356;28;20050;-73
2022/07/13 07:53:56;;;;;;;1.92;1.30;;;25.40;86.50;;;26.34;56.23;101413.81;5187638;28;20034;-72
2022/07/13 07:56:28;;;;;;;2.70;1.20;;;25.40;85.30;;;26.32;56.29;101415.66;5187666;28;20048;-73
2022/07/13 07:59:01;;;;;;;1.83;1.40;;;25.40;85.00;;;26.27;56.14;101409.50;5187204;28;20126;-73
2022/07/13 08:01:34;;;;;;;1.73;1.35;;;25.40;84.80;;;26.19;57.13;101407.00;5169851;28;20510;-75
2022/07/13 08:04:06;;;;;;;2.28;1.50;;;25.40;85.20;;;26.11;58.36;101403.63;5187567;28;20115;-74
2022/07/13 08:06:39;;;;;;;3.58;1.50;;;25.40;86.40;;;26.01;59.39;101408.25;5169779;28;20046;-77
2022/07/13 08:09:11;;;;;;;2.28;1.30;;;25.30;87.70;;;25.94;60.44;101410.16;5169114;28;20053;-73
2022/07/13 08:11:43;;;;;;;1.90;1.27;;;25.20;88.30;;;25.86;59.95;101406.75;5187306;28;20122;-72
2022/07/13 08:14:15;;;;;;;1.95;1.40;;;25.20;88.10;;;25.82;60.37;101407.75;5186938;28;20050;-76
2022/07/13 08:16:49;;;;;;;2.67;1.40;;;25.10;88.40;;;25.81;60.48;101410.41;5187149;28;20506;-75
2022/07/13 08:19:21;;;;;;;1.95;1.35;;;25.10;88.60;;;25.80;60.66;101409.53;5186845;28;20081;-74
2022/07/13 08:21:54;;;;;;;1.75;1.30;;;25.10;88.90;;;25.79;60.68;101420.25;5187204;28;20096;-76
2022/07/13 08:24:27;;;;;;;1.73;1.10;;;25.10;88.90;;;25.76;60.34;101414.97;5186801;28;20144;-73
2022/07/13 08:26:59;;;;;;;1.45;1.20;;;25.00;88.60;;;25.71;60.78;101421.25;5184220;28;20132;-71
2022/07/13 08:29:31;;;;;;;1.55;1.15;;;25.00;89.00;;;25.68;61.14;101415.94;5185231;28;20049;-71
2022/07/13 08:32:05;;;;;;;1.20;0.93;;;25.00;89.30;;;25.66;62.11;101420.44;5185293;28;20124;-71
2022/07/13 08:40:19;;;;;;;1.95;1.25;;;24.90;90.10;;;25.51;62.09;101395.81;5158418;28;20047;-71
2022/07/13 08:42:51;;;;;;;2.20;1.30;;;24.90;90.00;;;25.50;62.47;101397.59;5186654;28;20045;-72
2022/07/13 08:45:25;;;;;;;1.88;1.23;;;24.90;90.30;;;25.56;62.50;101404.59;5186494;28;20038;-73
2022/07/13 08:48:00;;;;;;;2.33;1.30;;;24.90;90.30;;;25.81;63.78;101399.72;5182982;28;20499;-72
2022/07/13 08:50:34;;;;;;;2.97;1.60;;;25.00;91.10;;;27.04;60.91;101401.59;5185291;28;20048;-70
2022/07/13 08:53:07;;;;;;;2.95;1.25;;;25.50;91.00;;;29.72;53.62;101400.06;5175312;28;20056;-76
2022/07/13 08:55:39;;;;;;;1.88;1.17;;;26.90;88.10;;;31.63;46.75;101400.72;5185804;28;20042;-76
2022/07/13 08:58:15;;;;;;;1.83;1.35;;;28.50;80.70;;;32.08;44.50;101395.13;5186010;28;20054;-76
2022/07/13 09:00:47;;;;;;;2.30;1.40;;;29.30;75.40;;;31.56;44.79;101392.03;5181770;28;20127;-76
2022/07/13 09:03:20;;;;;;;1.60;1.20;;;29.40;73.20;;;30.76;46.14;101391.72;5183429;28;20034;-75
2022/07/13 09:05:53;;;;;;;1.90;1.30;;;29.20;72.50;;;30.07;46.89;101395.25;5182519;28;20068;-76
2022/07/13 09:08:25;;;;;;;3.78;1.20;;;28.80;72.40;;;29.49;47.61;101381.19;5168385;28;20137;-76
2022/07/13 09:10:59;;;;;;;2.38;1.20;;;28.40;72.10;;;29.12;48.57;101385.09;5165144;28;20078;-73
2022/07/13 09:13:40;;;;;;;2.15;1.10;;;28.10;72.60;;;28.95;48.76;101382.06;5184895;28;20163;-73
2022/07/13 09:16:18;;;;;;;1.20;1.10;;;27.80;72.70;;;29.11;48.76;101388.72;5181418;28;20049;-71
2022/07/13 09:18:53;;;;;;;1.40;1.27;;;27.80;73.10;;;29.25;48.18;101378.38;5185625;28;20046;-74
2022/07/13 09:21:30;;;;;;;3.60;1.40;;;27.90;72.80;;;29.25;47.52;101386.44;5185862;28;20038;-71
2022/07/13 09:24:04;;;;;;;2.05;1.40;;;27.90;71.80;;;29.40;47.49;101383.22;5186069;28;20138;-72
2022/07/13 09:26:44;;;;;;;3.53;1.40;;;28.00;71.70;;;29.58;47.16;101387.13;5185877;28;20121;-72
2022/07/13 09:29:16;;;;;;;1.85;1.00;;;28.20;71.60;;;29.55;47.19;101386.38;5184624;28;20137;-73
2022/07/13 09:31:54;;;;;;;1.70;1.20;;;28.20;71.30;;;29.42;47.13;101381.38;5184581;28;20440;-73
2022/07/13 09:34:51;;;;;;;3.42;1.50;;;28.20;70.90;;;29.24;47.79;101376.63;5168115;28;20068;-73
2022/07/13 09:37:27;;;;;;;2.47;1.35;;;28.10;70.90;;;29.12;47.82;101393.16;5185864;28;20096;-71
2022/07/13 09:40:08;;;;;;;2.03;1.30;;;28.00;70.80;;;29.02;47.84;101380.97;5185652;28;20046;-70
2022/07/13 09:42:42;;;;;;;1.23;1.08;;;27.90;70.90;;;28.91;48.38;101382.19;5185870;28;20124;-73
2022/07/13 09:48:14;;;;;;;1.38;1.27;;;27.90;71.60;;;29.03;48.50;101377.34;5185398;28;20053;-69
2022/07/13 09:50:54;;;;;;;1.58;1.15;;;27.90;71.50;;;29.06;48.24;101382.63;5185777;28;20493;-71
2022/07/13 09:53:29;;;;;;;1.52;1.15;;;27.90;71.50;;;29.01;47.39;101385.44;5184094;28;20042;-75
2022/07/13 09:56:05;;;;;;;1.27;1.02;;;27.90;70.10;;;28.99;47.11;101371.19;5182777;28;20095;-73
2022/07/13 09:58:39;;;;;;;2.20;1.20;;;27.90;69.60;;;29.01;46.25;101381.88;5161097;28;20050;-73
2022/07/13 10:01:11;;;;;;;1.10;1.00;;;27.90;68.50;;;29.03;46.25;101377.34;5171198;28;20049;-72
2022/07/13 10:03:45;;;;;;;1.33;1.02;;;27.90;68.10;;;29.21;45.97;101365.97;5163721;28;20093;-74
2022/07/13 10:06:20;;;;;;;1.50;1.05;;;28.10;68.20;;;29.49;45.33;101375.81;5186021;28;20048;-74
2022/07/13 10:08:53;;;;;;;1.98;1.20;;;28.30;67.60;;;29.58;44.96;101371.00;5205350;28;20049;-75
2022/07/13 10:11:26;;;;;;;;;;;28.40;67.00;;;29.59;43.85;101382.63;5190056;28;20057;-75
2022/07/13 10:13:58;;;;;;;2.47;1.33;;;28.50;65.80;;;29.62;43.81;101377.16;5185203;28;19929;-74
2022/07/13 10:16:31;;;;;;;2.20;1.33;;;28.50;65.20;;;29.63;42.72;101381.59;5189468;28;20038;-75
2022/07/13 10:19:06;;;;;;;1.65;1.23;;;28.60;64.20;;;29.68;42.19;101376.97;5189724;28;20054;-77
2022/07/13 10:21:57;;;;;;;1.92;1.20;;;28.60;63.50;;;29.90;40.03;101379.75;5188023;28;20084;-78
2022/07/13 10:24:29;;;;;;;2.28;1.30;;;28.70;61.10;;;30.06;39.02;101380.03;5190504;28;20060;-76
2022/07/13 10:27:25;;;;;;;1.45;1.23;;;28.90;59.60;;;30.15;38.77;101383.31;5191140;28;20271;-78
2022/07/13 10:30:01;;;;;;;3.13;1.25;;;29.00;58.80;;;30.14;39.15;101386.06;5189330;28;20045;-73
2022/07/13 10:32:36;;;;;;;2.20;1.13;;;29.00;59.20;;;30.23;39.64;101385.69;5189983;28;20100;-75
2022/07/13 10:35:10;;;;;;;6.53;1.45;;;29.10;59.60;;;30.58;38.42;101386.16;5187897;28;20046;-68
2022/07/13 10:38:20;;;;;;;1.45;1.25;;;29.30;58.50;;;30.87;38.42;101377.84;5183868;28;20053;-75
2022/07/13 10:41:18;;;;;;;1.80;1.35;;;29.60;58.50;;;30.88;38.48;101378.72;5127586;28;20539;-79
2022/07/13 10:43:55;;;;;;;2.53;1.35;;;29.80;58.30;;;30.79;38.43;101380.84;5173047;28;20056;-77
2022/07/13 10:46:47;;;;;;;3.20;1.60;;;29.70;57.90;;;30.65;38.78;101375.13;5190046;28;20070;-78